sensor_id;sensor_type;location;lat;lon;timestamp;temperature;humidity
21037;DHT22;10677;50.942;4.028;2023-07-24T00:01:15;19.70;99.90
21037;DHT22;10677;50.942;4.028;2023-07-24T00:03:42;19.60;99.90
21037;DHT22;10677;50.942;4.028;2023-07-24T00:06:08;19.60;99.90
21037;DHT22;10677;50.942;4.028;2023-07-24T00:08:33;19.50;99.90
21037;DHT22;10677;50.942;4.028;2023-07-24T00:10:59;19.50;99.90
21037;DHT22;10677;50.942;4.028;2023-07-24T00:13:25;19.40;99.90
21037;DHT22;10677;50.942;4.028;2023-07-24T00:15:51;19.40;99.90
21037;DHT22;10677;50.942;4.028;2023-07-24T00:18:16;19.40;99.90
21037;DHT22;10677;50.942;4.028;2023-07-24T00:20:42;19.40;99.90
21037;DHT22;10677;50.942;4.028;2023-07-24T00:23:07;19.20;99.90
21037;DHT22;10677;50.942;4.028;2023-07-24T00:25:33;19.30;99.90
21037;DHT22;10677;50.942;4.028;2023-07-24T00:27:59;19.40;99.90
21037;DHT22;10677;50.942;4.028;2023-07-24T00:30:24;19.40;99.90
21037;DHT22;10677;50.942;4.028;2023-07-24T00:32:50;19.40;99.90
21037;DHT22;10677;50.942;4.028;2023-07-24T00:35:16;19.40;99.90
21037;DHT22;10677;50.942;4.028;2023-07-24T00:37:41;19.40;99.90
21037;DHT22;10677;50.942;4.028;2023-07-24T00:40:07;19.50;99.90
21037;DHT22;10677;50.942;4.028;2023-07-24T00:42:33;19.40;99.90
21037;DHT22;10677;50.942;4.028;2023-07-24T00:44:59;19.30;99.90
21037;DHT22;10677;50.942;4.028;2023-07-24T00:47:26;19.40;99.90
21037;DHT22;10677;50.942;4.028;2023-07-24T00:49:53;19.40;99.90
21037;DHT22;10677;50.942;4.028;2023-07-24T00:52:19;19.40;99.90
21037;DHT22;10677;50.942;4.028;2023-07-24T00:54:45;19.40;99.90
21037;DHT22;10677;50.942;4.028;2023-07-24T00:57:11;19.50;99.90
21037;DHT22;10677;50.942;4.028;2023-07-24T00:59:37;19.50;99.90
21037;DHT22;10677;50.942;4.028;2023-07-24T01:02:03;19.40;99.90
21037;DHT22;10677;50.942;4.028;2023-07-24T01:04:29;19.40;99.90
21037;DHT22;10677;50.942;4.028;2023-07-24T01:06:55;19.40;99.90
21037;DHT22;10677;50.942;4.028;2023-07-24T01:09:21;19.50;99.90
21037;DHT22;10677;50.942;4.028;2023-07-24T01:12:11;19.40;99.90
21037;DHT22;10677;50.942;4.028;2023-07-24T01:14:46;19.40;99.90
21037;DHT22;10677;50.942;4.028;2023-07-24T01:17:15;19.30;99.90
21037;DHT22;10677;50.942;4.028;2023-07-24T01:19:49;19.10;99.90
21037;DHT22;10677;50.942;4.028;2023-07-24T01:27:29;18.70;99.90
21037;DHT22;10677;50.942;4.028;2023-07-24T01:29:54;18.60;99.90
21037;DHT22;10677;50.942;4.028;2023-07-24T01:32:20;18.60;99.90
21037;DHT22;10677;50.942;4.028;2023-07-24T01:34:47;18.50;99.90
21037;DHT22;10677;50.942;4.028;2023-07-24T01:37:13;18.50;99.90
21037;DHT22;10677;50.942;4.028;2023-07-24T01:39:41;18.50;99.90
21037;DHT22;10677;50.942;4.028;2023-07-24T01:42:07;18.50;99.90
21037;DHT22;10677;50.942;4.028;2023-07-24T01:44:33;18.40;99.90
21037;DHT22;10677;50.942;4.028;2023-07-24T01:46:58;18.50;99.90
21037;DHT22;10677;50.942;4.028;2023-07-24T01:49:24;18.40;99.90
21037;DHT22;10677;50.942;4.028;2023-07-24T01:51:50;18.30;99.90
21037;DHT22;10677;50.942;4.028;2023-07-24T01:54:15;18.20;99.90
21037;DHT22;10677;50.942;4.028;2023-07-24T01:56:42;18.30;99.90
21037;DHT22;10677;50.942;4.028;2023-07-24T01:59:09;18.30;99.90
21037;DHT22;10677;50.942;4.028;2023-07-24T02:01:34;18.40;99.90
21037;DHT22;10677;50.942;4.028;2023-07-24T02:04:00;18.40;99.90
21037;DHT22;10677;50.942;4.028;2023-07-24T02:06:26;18.40;99.90
21037;DHT22;10677;50.942;4.028;2023-07-24T02:08:51;18.50;99.90
21037;DHT22;10677;50.942;4.028;2023-07-24T02:11:17;18.50;99.90
21037;DHT22;10677;50.942;4.028;2023-07-24T02:13:46;18.40;99.90
21037;DHT22;10677;50.942;4.028;2023-07-24T02:16:13;18.50;99.90
21037;DHT22;10677;50.942;4.028;2023-07-24T02:18:41;18.50;99.90
21037;DHT22;10677;50.942;4.028;2023-07-24T02:21:07;18.60;99.90
21037;DHT22;10677;50.942;4.028;2023-07-24T02:23:33;18.70;99.90
21037;DHT22;10677;50.942;4.028;2023-07-24T02:25:59;18.70;99.90
21037;DHT22;10677;50.942;4.028;2023-07-24T02:28:24;18.70;99.90
21037;DHT22;10677;50.942;4.028;2023-07-24T02:30:50;18.70;99.90
21037;DHT22;10677;50.942;4.028;2023-07-24T02:33:17;18.50;99.90
21037;DHT22;10677;50.942;4.028;2023-07-24T02:35:43;18.40;99.90
21037;DHT22;10677;50.942;4.028;2023-07-24T02:38:08;18.40;99.90
21037;DHT22;10677;50.942;4.028;2023-07-24T02:40:35;18.40;99.90
21037;DHT22;10677;50.942;4.028;2023-07-24T02:43:01;18.50;99.90
21037;DHT22;10677;50.942;4.028;2023-07-24T02:45:26;18.50;99.90
21037;DHT22;10677;50.942;4.028;2023-07-24T02:47:52;18.60;99.90
21037;DHT22;10677;50.942;4.028;2023-07-24T02:50:18;18.60;99.90
21037;DHT22;10677;50.942;4.028;2023-07-24T02:52:43;18.70;99.90
21037;DHT22;10677;50.942;4.028;2023-07-24T02:55:09;18.60;99.90
21037;DHT22;10677;50.942;4.028;2023-07-24T02:57:34;18.60;99.90
21037;DHT22;10677;50.942;4.028;2023-07-24T03:00:00;18.40;99.90
21037;DHT22;10677;50.942;4.028;2023-07-24T03:02:26;18.40;99.90
21037;DHT22;10677;50.942;4.028;2023-07-24T03:04:51;18.40;99.90
21037;DHT22;10677;50.942;4.028;2023-07-24T03:07:17;18.30;99.90
21037;DHT22;10677;50.942;4.028;2023-07-24T03:09:43;18.40;99.90
21037;DHT22;10677;50.942;4.028;2023-07-24T03:12:08;18.40;99.90
21037;DHT22;10677;50.942;4.028;2023-07-24T03:14:34;18.10;99.90
21037;DHT22;10677;50.942;4.028;2023-07-24T03:17:00;17.80;99.90
21037;DHT22;10677;50.942;4.028;2023-07-24T03:19:26;17.70;99.90
21037;DHT22;10677;50.942;4.028;2023-07-24T03:21:52;17.30;99.90
21037;DHT22;10677;50.942;4.028;2023-07-24T03:24:18;17.10;99.90
21037;DHT22;10677;50.942;4.028;2023-07-24T03:26:43;17.10;99.90
21037;DHT22;10677;50.942;4.028;2023-07-24T03:29:09;17.10;99.90
21037;DHT22;10677;50.942;4.028;2023-07-24T03:31:34;17.00;99.90
21037;DHT22;10677;50.942;4.028;2023-07-24T03:34:00;16.90;99.90
21037;DHT22;10677;50.942;4.028;2023-07-24T03:36:26;16.70;99.90
21037;DHT22;10677;50.942;4.028;2023-07-24T03:38:51;16.60;99.90
21037;DHT22;10677;50.942;4.028;2023-07-24T03:41:17;16.60;99.90
21037;DHT22;10677;50.942;4.028;2023-07-24T03:43:43;16.80;99.90
21037;DHT22;10677;50.942;4.028;2023-07-24T03:46:08;16.90;99.90
21037;DHT22;10677;50.942;4.028;2023-07-24T03:48:34;17.00;99.90
21037;DHT22;10677;50.942;4.028;2023-07-24T03:51:02;17.00;99.90
21037;DHT22;10677;50.942;4.028;2023-07-24T03:53:28;17.10;99.90
21037;DHT22;10677;50.942;4.028;2023-07-24T03:55:54;17.20;99.90
21037;DHT22;10677;50.942;4.028;2023-07-24T03:58:20;17.20;99.90
21037;DHT22;10677;50.942;4.028;2023-07-24T04:00:46;17.30;99.90
21037;DHT22;10677;50.942;4.028;2023-07-24T04:03:12;17.40;99.90
21037;DHT22;10677;50.942;4.028;2023-07-24T04:05:37;17.50;99.90
21037;DHT22;10677;50.942;4.028;2023-07-24T04:08:03;17.50;99.90
21037;DHT22;10677;50.942;4.028;2023-07-24T04:10:29;17.50;99.90
21037;DHT22;10677;50.942;4.028;2023-07-24T04:12:56;17.50;99.90
21037;DHT22;10677;50.942;4.028;2023-07-24T04:15:22;17.50;99.90
21037;DHT22;10677;50.942;4.028;2023-07-24T04:17:48;17.50;99.90
21037;DHT22;10677;50.942;4.028;2023-07-24T04:20:14;17.50;99.90
21037;DHT22;10677;50.942;4.028;2023-07-24T04:22:39;17.50;99.90
21037;DHT22;10677;50.942;4.028;2023-07-24T04:25:05;17.60;99.90
21037;DHT22;10677;50.942;4.028;2023-07-24T04:27:31;17.60;99.90
21037;DHT22;10677;50.942;4.028;2023-07-24T04:29:57;17.60;99.90
21037;DHT22;10677;50.942;4.028;2023-07-24T04:32:22;17.50;99.90
21037;DHT22;10677;50.942;4.028;2023-07-24T04:34:48;17.50;99.90
21037;DHT22;10677;50.942;4.028;2023-07-24T04:37:14;17.50;99.90
21037;DHT22;10677;50.942;4.028;2023-07-24T04:39:39;17.60;99.90
21037;DHT22;10677;50.942;4.028;2023-07-24T04:42:05;17.70;99.90
21037;DHT22;10677;50.942;4.028;2023-07-24T04:44:31;17.70;99.90
21037;DHT22;10677;50.942;4.028;2023-07-24T04:46:58;17.70;99.90
21037;DHT22;10677;50.942;4.028;2023-07-24T04:49:24;17.70;99.90
21037;DHT22;10677;50.942;4.028;2023-07-24T04:51:50;17.70;99.90
21037;DHT22;10677;50.942;4.028;2023-07-24T04:54:16;17.70;99.90
21037;DHT22;10677;50.942;4.028;2023-07-24T04:56:42;17.70;99.90
21037;DHT22;10677;50.942;4.028;2023-07-24T04:59:08;17.80;99.90
21037;DHT22;10677;50.942;4.028;2023-07-24T05:01:33;17.80;99.90
21037;DHT22;10677;50.942;4.028;2023-07-24T05:03:59;17.80;99.90
21037;DHT22;10677;50.942;4.028;2023-07-24T05:06:24;17.70;99.90
21037;DHT22;10677;50.942;4.028;2023-07-24T05:08:50;17.70;99.90
21037;DHT22;10677;50.942;4.028;2023-07-24T05:11:17;17.70;99.90
21037;DHT22;10677;50.942;4.028;2023-07-24T05:13:42;17.80;99.90
21037;DHT22;10677;50.942;4.028;2023-07-24T05:16:08;17.90;99.90
21037;DHT22;10677;50.942;4.028;2023-07-24T05:18:34;17.80;99.90
21037;DHT22;10677;50.942;4.028;2023-07-24T05:20:59;17.80;99.90
21037;DHT22;10677;50.942;4.028;2023-07-24T05:23:25;17.90;99.90
21037;DHT22;10677;50.942;4.028;2023-07-24T05:26:01;17.80;99.90
21037;DHT22;10677;50.942;4.028;2023-07-24T05:28:30;17.90;99.90
21037;DHT22;10677;50.942;4.028;2023-07-24T05:31:03;17.90;99.90
21037;DHT22;10677;50.942;4.028;2023-07-24T05:33:30;17.90;99.90
21037;DHT22;10677;50.942;4.028;2023-07-24T05:36:00;18.00;99.90
21037;DHT22;10677;50.942;4.028;2023-07-24T05:38:25;18.00;99.90
21037;DHT22;10677;50.942;4.028;2023-07-24T05:40:59;18.00;99.90
21037;DHT22;10677;50.942;4.028;2023-07-24T05:43:26;18.00;99.90
21037;DHT22;10677;50.942;4.028;2023-07-24T05:45:54;18.00;99.90
21037;DHT22;10677;50.942;4.028;2023-07-24T05:48:20;17.90;99.90
21037;DHT22;10677;50.942;4.028;2023-07-24T05:50:46;17.90;99.90
21037;DHT22;10677;50.942;4.028;2023-07-24T05:53:11;17.80;99.90
21037;DHT22;10677;50.942;4.028;2023-07-24T05:55:37;17.80;99.90
21037;DHT22;10677;50.942;4.028;2023-07-24T05:58:02;17.90;99.90
21037;DHT22;10677;50.942;4.028;2023-07-24T06:00:28;17.90;99.90
21037;DHT22;10677;50.942;4.028;2023-07-24T06:02:54;17.90;99.90
21037;DHT22;10677;50.942;4.028;2023-07-24T06:05:20;18.00;99.90
21037;DHT22;10677;50.942;4.028;2023-07-24T06:07:46;18.00;99.90
21037;DHT22;10677;50.942;4.028;2023-07-24T06:10:12;18.10;99.90
21037;DHT22;10677;50.942;4.028;2023-07-24T06:12:38;18.20;99.90
21037;DHT22;10677;50.942;4.028;2023-07-24T06:15:04;18.40;99.90
21037;DHT22;10677;50.942;4.028;2023-07-24T06:17:30;18.50;99.90
21037;DHT22;10677;50.942;4.028;2023-07-24T06:19:56;18.50;99.90
21037;DHT22;10677;50.942;4.028;2023-07-24T06:22:22;18.60;99.90
21037;DHT22;10677;50.942;4.028;2023-07-24T06:24:48;18.70;99.90
21037;DHT22;10677;50.942;4.028;2023-07-24T06:27:14;18.70;99.90
21037;DHT22;10677;50.942;4.028;2023-07-24T06:29:40;18.80;99.90
21037;DHT22;10677;50.942;4.028;2023-07-24T06:32:06;18.80;99.90
21037;DHT22;10677;50.942;4.028;2023-07-24T06:34:31;18.70;99.90
21037;DHT22;10677;50.942;4.028;2023-07-24T06:36:57;18.80;99.90
21037;DHT22;10677;50.942;4.028;2023-07-24T06:39:23;18.80;99.90
21037;DHT22;10677;50.942;4.028;2023-07-24T06:41:50;18.70;99.90
21037;DHT22;10677;50.942;4.028;2023-07-24T06:44:16;18.60;99.90
21037;DHT22;10677;50.942;4.028;2023-07-24T06:46:42;18.60;99.90
21037;DHT22;10677;50.942;4.028;2023-07-24T06:49:07;18.60;99.90
21037;DHT22;10677;50.942;4.028;2023-07-24T06:51:33;18.50;99.90
21037;DHT22;10677;50.942;4.028;2023-07-24T06:53:58;18.40;99.90
21037;DHT22;10677;50.942;4.028;2023-07-24T06:56:24;18.40;99.90
21037;DHT22;10677;50.942;4.028;2023-07-24T06:58:49;18.30;99.90
21037;DHT22;10677;50.942;4.028;2023-07-24T07:01:15;18.30;99.90
21037;DHT22;10677;50.942;4.028;2023-07-24T07:03:41;18.40;99.90
21037;DHT22;10677;50.942;4.028;2023-07-24T07:06:06;18.40;99.90
21037;DHT22;10677;50.942;4.028;2023-07-24T07:08:32;18.50;99.90
21037;DHT22;10677;50.942;4.028;2023-07-24T07:10:59;18.70;99.90
21037;DHT22;10677;50.942;4.028;2023-07-24T07:13:25;18.80;99.90
21037;DHT22;10677;50.942;4.028;2023-07-24T07:15:51;18.80;99.90
21037;DHT22;10677;50.942;4.028;2023-07-24T07:18:17;18.90;99.90
21037;DHT22;10677;50.942;4.028;2023-07-24T07:20:50;19.10;99.90
21037;DHT22;10677;50.942;4.028;2023-07-24T07:23:16;19.10;99.90
21037;DHT22;10677;50.942;4.028;2023-07-24T07:25:42;19.10;99.90
21037;DHT22;10677;50.942;4.028;2023-07-24T07:28:20;19.20;99.90
21037;DHT22;10677;50.942;4.028;2023-07-24T07:30:45;19.40;99.90
21037;DHT22;10677;50.942;4.028;2023-07-24T07:33:11;19.40;99.90
21037;DHT22;10677;50.942;4.028;2023-07-24T07:35:37;19.40;99.90
21037;DHT22;10677;50.942;4.028;2023-07-24T07:38:03;19.60;99.90
21037;DHT22;10677;50.942;4.028;2023-07-24T07:40:29;19.60;99.90
21037;DHT22;10677;50.942;4.028;2023-07-24T07:42:56;19.70;99.90
21037;DHT22;10677;50.942;4.028;2023-07-24T07:45:22;19.80;99.90
21037;DHT22;10677;50.942;4.028;2023-07-24T07:47:48;20.00;99.90
21037;DHT22;10677;50.942;4.028;2023-07-24T07:50:14;20.20;99.90
21037;DHT22;10677;50.942;4.028;2023-07-24T07:52:39;20.10;99.90
21037;DHT22;10677;50.942;4.028;2023-07-24T07:55:05;20.10;99.90
21037;DHT22;10677;50.942;4.028;2023-07-24T07:57:35;20.00;99.90
21037;DHT22;10677;50.942;4.028;2023-07-24T08:00:05;20.10;99.90
21037;DHT22;10677;50.942;4.028;2023-07-24T08:02:33;20.40;99.90
21037;DHT22;10677;50.942;4.028;2023-07-24T08:04:59;20.70;99.90
21037;DHT22;10677;50.942;4.028;2023-07-24T08:07:25;20.60;99.90
21037;DHT22;10677;50.942;4.028;2023-07-24T08:09:51;20.70;99.90
21037;DHT22;10677;50.942;4.028;2023-07-24T08:12:16;20.80;99.90
21037;DHT22;10677;50.942;4.028;2023-07-24T08:14:43;20.80;99.90
21037;DHT22;10677;50.942;4.028;2023-07-24T08:17:09;20.80;99.90
21037;DHT22;10677;50.942;4.028;2023-07-24T08:19:35;20.60;99.90
21037;DHT22;10677;50.942;4.028;2023-07-24T08:22:00;20.60;99.90
21037;DHT22;10677;50.942;4.028;2023-07-24T08:24:26;20.50;99.90
21037;DHT22;10677;50.942;4.028;2023-07-24T08:26:51;20.50;99.90
21037;DHT22;10677;50.942;4.028;2023-07-24T08:29:17;20.50;99.90
21037;DHT22;10677;50.942;4.028;2023-07-24T08:31:43;20.60;99.90
21037;DHT22;10677;50.942;4.028;2023-07-24T08:34:08;20.60;99.90
21037;DHT22;10677;50.942;4.028;2023-07-24T08:36:34;20.60;99.90
21037;DHT22;10677;50.942;4.028;2023-07-24T08:38:59;20.40;99.90
21037;DHT22;10677;50.942;4.028;2023-07-24T08:41:25;20.70;99.90
21037;DHT22;10677;50.942;4.028;2023-07-24T08:43:51;20.90;99.90
21037;DHT22;10677;50.942;4.028;2023-07-24T08:46:18;21.00;99.90
21037;DHT22;10677;50.942;4.028;2023-07-24T08:48:44;21.20;99.90
21037;DHT22;10677;50.942;4.028;2023-07-24T08:51:12;21.00;99.90
21037;DHT22;10677;50.942;4.028;2023-07-24T08:53:39;21.10;99.90
21037;DHT22;10677;50.942;4.028;2023-07-24T08:56:07;21.10;99.90
21037;DHT22;10677;50.942;4.028;2023-07-24T08:58:33;20.60;99.90
21037;DHT22;10677;50.942;4.028;2023-07-24T09:01:00;20.20;99.90
21037;DHT22;10677;50.942;4.028;2023-07-24T09:03:26;20.20;99.90
21037;DHT22;10677;50.942;4.028;2023-07-24T09:05:52;20.70;99.90
21037;DHT22;10677;50.942;4.028;2023-07-24T09:08:32;21.20;99.90
21037;DHT22;10677;50.942;4.028;2023-07-24T09:11:02;21.60;99.90
21037;DHT22;10677;50.942;4.028;2023-07-24T09:13:28;21.90;99.90
21037;DHT22;10677;50.942;4.028;2023-07-24T09:15:54;21.70;99.90
21037;DHT22;10677;50.942;4.028;2023-07-24T09:18:21;21.30;99.90
21037;DHT22;10677;50.942;4.028;2023-07-24T09:20:47;21.60;99.90
21037;DHT22;10677;50.942;4.028;2023-07-24T09:23:14;21.20;99.90
21037;DHT22;10677;50.942;4.028;2023-07-24T09:25:40;20.90;99.90
21037;DHT22;10677;50.942;4.028;2023-07-24T09:28:14;21.00;99.90
21037;DHT22;10677;50.942;4.028;2023-07-24T09:30:41;21.20;99.90
21037;DHT22;10677;50.942;4.028;2023-07-24T09:33:08;21.30;99.90
21037;DHT22;10677;50.942;4.028;2023-07-24T09:35:34;21.70;99.90
21037;DHT22;10677;50.942;4.028;2023-07-24T09:38:06;21.80;99.90
21037;DHT22;10677;50.942;4.028;2023-07-24T09:40:45;21.50;99.90
21037;DHT22;10677;50.942;4.028;2023-07-24T09:43:21;21.60;99.90
21037;DHT22;10677;50.942;4.028;2023-07-24T09:45:48;21.90;99.90
21037;DHT22;10677;50.942;4.028;2023-07-24T09:48:15;22.20;99.90
21037;DHT22;10677;50.942;4.028;2023-07-24T09:50:42;21.90;99.90
21037;DHT22;10677;50.942;4.028;2023-07-24T09:55:57;22.00;99.90
21037;DHT22;10677;50.942;4.028;2023-07-24T09:58:23;22.10;99.90
21037;DHT22;10677;50.942;4.028;2023-07-24T10:00:50;22.10;99.90
21037;DHT22;10677;50.942;4.028;2023-07-24T10:03:16;22.00;99.90
21037;DHT22;10677;50.942;4.028;2023-07-24T10:05:44;21.90;99.90
21037;DHT22;10677;50.942;4.028;2023-07-24T10:08:17;21.70;99.90
21037;DHT22;10677;50.942;4.028;2023-07-24T10:10:43;21.50;99.90
21037;DHT22;10677;50.942;4.028;2023-07-24T10:13:09;21.60;99.90
21037;DHT22;10677;50.942;4.028;2023-07-24T10:15:37;21.60;99.90
21037;DHT22;10677;50.942;4.028;2023-07-24T10:18:06;21.70;99.90
21037;DHT22;10677;50.942;4.028;2023-07-24T10:20:39;21.70;99.90
21037;DHT22;10677;50.942;4.028;2023-07-24T10:23:08;21.40;99.90
21037;DHT22;10677;50.942;4.028;2023-07-24T10:25:37;21.10;99.90
21037;DHT22;10677;50.942;4.028;2023-07-24T10:28:05;21.00;99.90
21037;DHT22;10677;50.942;4.028;2023-07-24T10:30:34;21.00;99.90
21037;DHT22;10677;50.942;4.028;2023-07-24T10:33:11;21.40;99.90
21037;DHT22;10677;50.942;4.028;2023-07-24T10:35:45;21.60;99.90
21037;DHT22;10677;50.942;4.028;2023-07-24T10:38:16;22.00;99.90
21037;DHT22;10677;50.942;4.028;2023-07-24T10:40:44;22.20;99.90
21037;DHT22;10677;50.942;4.028;2023-07-24T10:43:13;22.40;99.90
21037;DHT22;10677;50.942;4.028;2023-07-24T10:48:09;22.00;99.90
21037;DHT22;10677;50.942;4.028;2023-07-24T10:50:44;21.80;99.90
21037;DHT22;10677;50.942;4.028;2023-07-24T10:53:11;21.50;99.90
21037;DHT22;10677;50.942;4.028;2023-07-24T10:55:37;21.80;99.90
21037;DHT22;10677;50.942;4.028;2023-07-24T10:58:05;22.00;99.90
21037;DHT22;10677;50.942;4.028;2023-07-24T11:00:31;21.90;99.90
21037;DHT22;10677;50.942;4.028;2023-07-24T11:02:56;22.20;99.90
21037;DHT22;10677;50.942;4.028;2023-07-24T11:05:23;22.50;99.90
21037;DHT22;10677;50.942;4.028;2023-07-24T11:07:49;22.30;99.90
21037;DHT22;10677;50.942;4.028;2023-07-24T11:10:16;21.90;99.90
21037;DHT22;10677;50.942;4.028;2023-07-24T11:12:41;21.90;99.90
21037;DHT22;10677;50.942;4.028;2023-07-24T11:15:07;22.20;99.90
21037;DHT22;10677;50.942;4.028;2023-07-24T11:17:34;22.60;99.90
21037;DHT22;10677;50.942;4.028;2023-07-24T11:20:12;23.00;99.90
21037;DHT22;10677;50.942;4.028;2023-07-24T11:22:42;23.20;99.90
21037;DHT22;10677;50.942;4.028;2023-07-24T11:25:09;23.00;99.90
21037;DHT22;10677;50.942;4.028;2023-07-24T11:27:42;23.50;99.90
21037;DHT22;10677;50.942;4.028;2023-07-24T11:30:10;23.60;99.90
21037;DHT22;10677;50.942;4.028;2023-07-24T11:32:39;23.50;99.90
21037;DHT22;10677;50.942;4.028;2023-07-24T11:35:07;23.40;99.90
21037;DHT22;10677;50.942;4.028;2023-07-24T11:37:34;22.80;99.90
21037;DHT22;10677;50.942;4.028;2023-07-24T11:40:03;22.60;99.90
21037;DHT22;10677;50.942;4.028;2023-07-24T11:42:40;22.80;99.90
21037;DHT22;10677;50.942;4.028;2023-07-24T11:45:07;22.60;99.90
21037;DHT22;10677;50.942;4.028;2023-07-24T11:47:45;22.90;99.90
21037;DHT22;10677;50.942;4.028;2023-07-24T11:50:12;23.10;99.90
21037;DHT22;10677;50.942;4.028;2023-07-24T11:52:52;23.70;99.90
21037;DHT22;10677;50.942;4.028;2023-07-24T11:55:29;23.90;99.90
21037;DHT22;10677;50.942;4.028;2023-07-24T11:58:00;24.40;99.90
21037;DHT22;10677;50.942;4.028;2023-07-24T12:00:27;24.20;99.90
21037;DHT22;10677;50.942;4.028;2023-07-24T12:02:58;24.40;99.90
21037;DHT22;10677;50.942;4.028;2023-07-24T12:05:24;24.30;99.90
21037;DHT22;10677;50.942;4.028;2023-07-24T12:07:50;24.10;99.90
21037;DHT22;10677;50.942;4.028;2023-07-24T12:10:26;23.50;99.90
21037;DHT22;10677;50.942;4.028;2023-07-24T12:12:58;23.10;99.90
21037;DHT22;10677;50.942;4.028;2023-07-24T12:15:25;22.90;99.90
21037;DHT22;10677;50.942;4.028;2023-07-24T12:17:52;23.10;99.90
21037;DHT22;10677;50.942;4.028;2023-07-24T12:20:17;23.20;99.90
21037;DHT22;10677;50.942;4.028;2023-07-24T12:22:43;23.60;99.90
21037;DHT22;10677;50.942;4.028;2023-07-24T12:25:09;23.90;99.90
21037;DHT22;10677;50.942;4.028;2023-07-24T12:27:34;24.30;99.90
21037;DHT22;10677;50.942;4.028;2023-07-24T12:30:01;24.40;99.90
21037;DHT22;10677;50.942;4.028;2023-07-24T12:32:27;24.60;99.90
21037;DHT22;10677;50.942;4.028;2023-07-24T12:34:53;24.90;99.90
21037;DHT22;10677;50.942;4.028;2023-07-24T12:37:19;24.30;99.90
21037;DHT22;10677;50.942;4.028;2023-07-24T12:39:46;23.60;99.90
21037;DHT22;10677;50.942;4.028;2023-07-24T12:42:13;23.50;99.90
21037;DHT22;10677;50.942;4.028;2023-07-24T12:44:38;23.80;99.90
21037;DHT22;10677;50.942;4.028;2023-07-24T12:47:05;23.60;99.90
21037;DHT22;10677;50.942;4.028;2023-07-24T12:49:31;23.20;99.90
21037;DHT22;10677;50.942;4.028;2023-07-24T12:51:57;23.50;99.90
21037;DHT22;10677;50.942;4.028;2023-07-24T12:54:22;23.60;99.90
21037;DHT22;10677;50.942;4.028;2023-07-24T12:56:49;23.80;99.90
21037;DHT22;10677;50.942;4.028;2023-07-24T12:59:16;24.20;99.90
21037;DHT22;10677;50.942;4.028;2023-07-24T13:01:42;24.60;99.90
21037;DHT22;10677;50.942;4.028;2023-07-24T13:04:08;24.60;99.90
21037;DHT22;10677;50.942;4.028;2023-07-24T13:06:33;24.50;99.90
21037;DHT22;10677;50.942;4.028;2023-07-24T13:08:59;24.40;99.90
21037;DHT22;10677;50.942;4.028;2023-07-24T13:11:25;24.40;99.90
21037;DHT22;10677;50.942;4.028;2023-07-24T13:13:54;24.50;99.90
21037;DHT22;10677;50.942;4.028;2023-07-24T13:16:20;24.60;99.90
21037;DHT22;10677;50.942;4.028;2023-07-24T13:18:46;24.80;99.90
21037;DHT22;10677;50.942;4.028;2023-07-24T13:21:11;24.80;99.90
21037;DHT22;10677;50.942;4.028;2023-07-24T13:23:37;24.70;99.90
21037;DHT22;10677;50.942;4.028;2023-07-24T13:26:03;24.30;99.90
21037;DHT22;10677;50.942;4.028;2023-07-24T13:28:29;24.10;99.90
21037;DHT22;10677;50.942;4.028;2023-07-24T13:30:55;24.00;99.90
21037;DHT22;10677;50.942;4.028;2023-07-24T13:33:20;23.80;99.90
21037;DHT22;10677;50.942;4.028;2023-07-24T13:35:48;24.10;99.90
21037;DHT22;10677;50.942;4.028;2023-07-24T13:38:13;24.70;99.90
21037;DHT22;10677;50.942;4.028;2023-07-24T13:40:40;25.10;99.90
21037;DHT22;10677;50.942;4.028;2023-07-24T13:43:05;26.80;99.90
21037;DHT22;10677;50.942;4.028;2023-07-24T13:45:31;28.80;99.90
21037;DHT22;10677;50.942;4.028;2023-07-24T13:47:57;29.40;99.90
21037;DHT22;10677;50.942;4.028;2023-07-24T13:50:27;29.40;99.90
21037;DHT22;10677;50.942;4.028;2023-07-24T13:52:53;28.00;99.90
21037;DHT22;10677;50.942;4.028;2023-07-24T13:55:18;24.40;99.90
21037;DHT22;10677;50.942;4.028;2023-07-24T13:57:44;22.60;99.90
21037;DHT22;10677;50.942;4.028;2023-07-24T14:00:10;21.70;99.90
21037;DHT22;10677;50.942;4.028;2023-07-24T14:02:36;21.30;99.90
21037;DHT22;10677;50.942;4.028;2023-07-24T14:05:01;20.90;99.90
21037;DHT22;10677;50.942;4.028;2023-07-24T14:07:27;20.70;99.90
21037;DHT22;10677;50.942;4.028;2023-07-24T14:09:53;20.50;99.90
21037;DHT22;10677;50.942;4.028;2023-07-24T14:12:18;19.90;99.90
21037;DHT22;10677;50.942;4.028;2023-07-24T14:14:44;19.30;99.90
21037;DHT22;10677;50.942;4.028;2023-07-24T14:17:09;18.70;99.90
21037;DHT22;10677;50.942;4.028;2023-07-24T14:19:35;18.10;99.90
21037;DHT22;10677;50.942;4.028;2023-07-24T14:22:01;18.00;99.90
21037;DHT22;10677;50.942;4.028;2023-07-24T14:24:27;18.00;99.90
21037;DHT22;10677;50.942;4.028;2023-07-24T14:26:52;17.90;99.90
21037;DHT22;10677;50.942;4.028;2023-07-24T14:29:18;17.80;99.90
21037;DHT22;10677;50.942;4.028;2023-07-24T14:31:44;17.90;99.90
21037;DHT22;10677;50.942;4.028;2023-07-24T14:34:10;17.70;99.90
21037;DHT22;10677;50.942;4.028;2023-07-24T14:36:38;17.70;99.90
21037;DHT22;10677;50.942;4.028;2023-07-24T14:39:04;17.70;99.90
21037;DHT22;10677;50.942;4.028;2023-07-24T14:41:30;17.90;99.90
21037;DHT22;10677;50.942;4.028;2023-07-24T14:43:56;17.80;99.90
21037;DHT22;10677;50.942;4.028;2023-07-24T14:46:21;18.00;99.90
21037;DHT22;10677;50.942;4.028;2023-07-24T14:48:47;18.30;99.90
21037;DHT22;10677;50.942;4.028;2023-07-24T14:51:13;18.70;99.90
21037;DHT22;10677;50.942;4.028;2023-07-24T14:53:38;19.50;99.90
21037;DHT22;10677;50.942;4.028;2023-07-24T14:56:04;21.00;99.90
21037;DHT22;10677;50.942;4.028;2023-07-24T14:58:30;23.00;99.90
21037;DHT22;10677;50.942;4.028;2023-07-24T15:00:56;24.80;99.90
21037;DHT22;10677;50.942;4.028;2023-07-24T15:03:22;25.80;99.90
21037;DHT22;10677;50.942;4.028;2023-07-24T15:05:48;27.00;99.90
21037;DHT22;10677;50.942;4.028;2023-07-24T15:08:13;27.70;99.90
21037;DHT22;10677;50.942;4.028;2023-07-24T15:10:39;27.00;99.90
21037;DHT22;10677;50.942;4.028;2023-07-24T15:13:05;27.00;99.90
21037;DHT22;10677;50.942;4.028;2023-07-24T15:15:31;27.80;99.90
21037;DHT22;10677;50.942;4.028;2023-07-24T15:17:58;27.70;99.90
21037;DHT22;10677;50.942;4.028;2023-07-24T15:20:24;25.10;99.90
21037;DHT22;10677;50.942;4.028;2023-07-24T15:22:50;23.60;99.90
21037;DHT22;10677;50.942;4.028;2023-07-24T15:25:19;23.00;99.90
21037;DHT22;10677;50.942;4.028;2023-07-24T15:27:44;22.00;99.90
21037;DHT22;10677;50.942;4.028;2023-07-24T15:30:10;21.50;99.90
21037;DHT22;10677;50.942;4.028;2023-07-24T15:32:36;21.30;99.90
21037;DHT22;10677;50.942;4.028;2023-07-24T15:35:02;21.10;99.90
21037;DHT22;10677;50.942;4.028;2023-07-24T15:37:28;21.40;99.90